Terminal Aerodrome Forecast
Issued by NWS Tulsa, OK

Home | Current Version | Previous Version | Text Only | Print | Product List | Glossary On
Versions: 1 2 3 4 5 6 7 8 9 10 11 12 13 14 15 16 17 18
000
FTUS44 KTSA 011120
TAFFSM
TAF
KFSM 011120Z 0112/0212 00000KT P6SM SKC
     FM011700 31010KT P6SM SCT250
     FM020100 33005KT P6SM BKN080 PROB30 0204/0208 6SM -RA BKN035
     FM020800 34005KT P6SM BKN035 PROB30 0208/0212 6SM -TSRA
      BKN025CB=

USA.gov is the U.S. government's official web portal to all federal, state and local government web resources and services.